LWSK Airport Information

Runway Information
Runway 16 Length 8038 ft width 140 ft
Elevation 781 ft Threshold 0 ft Heading 165
Runway 34 Length 8038 ft Width 140 ft
Elevation 768 ft Threshold 0 ft Heading 345
Airport Frequencies
Type APP Name APP Frequency 120.3 MHZ
Type ATIS Name ATIS Frequency 130.125 MHZ
Type TWR Name TWR Frequency 118.5 MHZ
Airport Navaids
Type NDB Name Skopje Frequency 442 KHZ
Type VOR-DME Name Sinko Frequency 111450 KHZ
Type VOR-DME Name Skopje Frequency 112800 KHZ
Airport Weather Information & NOTAM
ADDS - METARS form results

(1428 UTC 25 October 2021)
Data provider http://aviationweather.gov/metar/data/
 
METAR text: LWSK 251400Z 15009KT 120V180 CAVOK 15/03 Q1027 NOSIG
Conditions at: LWSK (SKOPJE/PETROVAC , MK) observed 1400 UTC 25 October 2021
Temperature: 15.0°C (59°F)
Dewpoint: 3.0°C (37°F) [RH = 44%]
Pressure (altimeter): 30.32 inches Hg (1027.0 mb)
Winds: from the SSE (150 degrees) at 10 MPH (9 knots; 4.6 m/s)
Visibility: 6 or more miles (10+ km)
Ceiling: ceiling and visibility are OK
Clouds: unknown
Weather: no significant weather observed at this time

METAR text: LWSK 251330Z 14010KT 120V190 9999 FEW050 16/04 Q1027 NOSIG
Conditions at: LWSK (SKOPJE/PETROVAC , MK) observed 1330 UTC 25 October 2021
Temperature: 16.0°C (61°F)
Dewpoint: 4.0°C (39°F) [RH = 45%]
Pressure (altimeter): 30.32 inches Hg (1027.0 mb)
Winds: from the SE (140 degrees) at 12 MPH (10 knots; 5.1 m/s)
Visibility: 6 or more miles (10+ km)
Ceiling: at least 12,000 feet AGL
Clouds: few clouds at 5000 feet AGL
Weather: no significant weather observed at this time

Forecast for: LWSK (SKOPJE/PETROVAC , MK)
Text: TAF LWSK 251410Z 2515/2615 14008KT CAVOK
Forecast period: 1500 to 1800 UTC 25 October 2021
Forecast type: FROM: standard forecast or significant change
Winds: from the SE (140 degrees) at 9 MPH (8 knots; 4.1 m/s)
Visibility: 6 or more miles (10+ km)
Ceiling: unknown
Clouds: missing
Weather: NSW  (no significant weather)
Text: TEMPO 2515/2517 16015KT
Forecast period: 1500 to 1700 UTC 25 October 2021
Forecast type: TEMPORARY: The following changes expected for less than half the time period
Winds: from the SSE (160 degrees) at 17 MPH (15 knots; 7.7 m/s)
Visibility: missing
Ceiling: unknown
Clouds: missing
Weather: no significant weather forecast for this period
Text: BECMG 2518/2520 VRB02KT
Forecast period: 1800 UTC 25 October 2021 to 1500 UTC 26 October 2021
Forecast type: BECOMING: Conditions expected to become as follows by 2000 UTC 25 October 2021
Winds: variable direction winds at 2 MPH (2 knots; 1.0 m/s)
Visibility: 6 or more miles (10+ km)
Ceiling: unknown
Clouds: missing
Weather: NSW  (no significant weather)